Valley Springs, AR (72682)

11:05 PM CDT on May 27, 2015 (GMT -0500)
Gaither | | Change Station
CLOSE
Current Station
Personal Weather Station
Location: Harrison, AR
Elevation: 1302 ft
Nearby Weather Stations

Elev 1302 ft 36.15 °N, 93.17 °W | Updated 12 minutes ago

Partly Cloudy
Partly Cloudy
64.0 °F
Feels Like 64.0 °F
N
0.0
Wind Variable Wind from SSW

Today
High -- | Low -- °F
--% Chance of Precip.
Yesterday
High -- | Low -- °F
Precip. -- in
5:58 AM 8:20 PM
Waxing Gibbous, 72% visible
Pressure 30.08 in
Visibility 10.0 miles
Clouds Clear
Dew Point 64 °F
Humidity 99%
Rainfall 0.00 in
Snow Depth Not available.
UV 0 out of 12
Pollen 7.40 out of 12
Air Quality Not available.
Flu Activity No Activity
METAR KHRO 280353Z AUTO 11005KT 10SM CLR 19/18 A3011 RMK AO2 SLP184 T01940183

More Conditions Fewer Conditions

Pressure 30.08 in
Visibility 10.0 miles
Clouds Clear
Dew Point 64 °F
Humidity 99%
Rainfall 0.00 in
Snow Depth Not available.
UV 0 out of 12
Pollen 7.40 out of 12
Air Quality Not available.
Flu Activity No Activity
METAR KHRO 280353Z AUTO 11005KT 10SM CLR 19/18 A3011 RMK AO2 SLP184 T01940183

More Conditions Fewer Conditions

10-Day Weather Forecast

Almanac

Astronomy

May. 27, 2015 Rise Set
Actual Time
Civil Twilight
Nautical Twilight
Astronomical Twilight
Moon
Length of Visible Light
Length of Day
Tomorrow will be .
, % of the Moon is Illuminated

Today's Extremes

State Highs State Lows

Community

WunderPhotos

Upload Photos

1,824,914 photos uploaded!

WunderBlogs® & News

Nearby

Air Quality

  Air Quality AQ Index Pollutant
Not available.

Snow Depth

Station Depth Elevation

Earthquake Activity

City Distance Mag. Time & Date
Minimum magnitude displayed is 2.5.

Coastal Water Temperatures

Place Temperature

Stations

Nearby Weather Stations

Station Location Temp. Windchill Dew Point Humidity Wind Precip. Elev Updated Type